createdAt,value
2018-06-21T00:00:55.818Z,68.80
2018-06-21T00:03:32.861Z,68.90
2018-06-21T00:06:09.252Z,69.30
2018-06-21T00:08:45.673Z,68.90
2018-06-21T00:11:22.681Z,69.00
2018-06-21T00:13:59.138Z,69.20
2018-06-21T00:16:35.742Z,70.00
2018-06-21T00:19:12.236Z,70.00
2018-06-21T00:21:48.818Z,69.40
2018-06-21T00:24:25.538Z,70.70
2018-06-21T00:27:02.099Z,70.30
2018-06-21T00:29:38.639Z,70.60
2018-06-21T00:32:15.242Z,70.30
2018-06-21T00:34:51.811Z,70.30
2018-06-21T00:37:28.401Z,70.10
2018-06-21T00:40:04.981Z,70.10
2018-06-21T00:42:41.380Z,71.80
2018-06-21T00:45:17.809Z,71.80
2018-06-21T00:47:56.022Z,71.40
2018-06-21T00:50:32.351Z,72.50
2018-06-21T00:53:08.916Z,73.00
2018-06-21T00:56:02.392Z,72.20
2018-06-21T00:58:39.039Z,72.40
2018-06-21T01:03:52.431Z,70.90
2018-06-21T01:06:28.910Z,70.90
2018-06-21T01:09:07.173Z,73.10
2018-06-21T01:11:43.544Z,71.70
2018-06-21T01:14:20.104Z,73.10
2018-06-21T01:16:56.861Z,72.40
2018-06-21T01:19:34.311Z,71.60
2018-06-21T01:22:10.722Z,72.50
2018-06-21T01:24:47.012Z,73.20
2018-06-21T01:27:23.576Z,74.20
2018-06-21T01:29:59.956Z,73.80
2018-06-21T01:32:36.509Z,75.80
2018-06-21T01:35:12.946Z,74.70
2018-06-21T01:37:49.602Z,74.70
2018-06-21T01:40:26.077Z,73.70
2018-06-21T01:43:04.497Z,74.60
2018-06-21T01:45:40.914Z,73.60
2018-06-21T01:48:17.556Z,73.50
2018-06-21T01:50:54.043Z,73.40
2018-06-21T01:53:30.394Z,75.60
2018-06-21T01:56:06.766Z,75.10
2018-06-21T01:58:43.345Z,73.90
2018-06-21T02:01:19.875Z,74.40
2018-06-21T02:03:56.388Z,75.80
2018-06-21T02:06:32.822Z,75.40
2018-06-21T02:09:10.196Z,76.30
2018-06-21T02:11:46.651Z,76.30
2018-06-21T02:14:23.253Z,76.50
2018-06-21T02:16:59.716Z,77.10
2018-06-21T02:19:36.294Z,77.30
2018-06-21T02:22:13.546Z,76.50
2018-06-21T02:24:50.043Z,75.80
2018-06-21T02:27:26.549Z,76.90
2018-06-21T02:30:03.075Z,76.50
2018-06-21T02:32:39.619Z,77.00
2018-06-21T02:35:15.949Z,78.10
2018-06-21T02:37:52.440Z,77.50
2018-06-21T02:40:28.963Z,78.10
2018-06-21T02:43:05.856Z,78.60
2018-06-21T02:48:19.344Z,77.20
2018-06-21T02:50:55.753Z,76.30
2018-06-21T02:53:32.316Z,77.00
2018-06-21T02:56:08.786Z,77.40
2018-06-21T02:58:45.193Z,78.50
2018-06-21T03:01:21.563Z,78.20
2018-06-21T03:03:58.097Z,79.20
2018-06-21T03:06:34.348Z,78.90
2018-06-21T03:09:11.288Z,79.10
2018-06-21T03:11:47.765Z,79.50
2018-06-21T03:14:24.239Z,80.20
2018-06-21T03:17:00.707Z,80.60
2018-06-21T03:19:37.112Z,80.20
2018-06-21T03:22:13.536Z,81.20
2018-06-21T03:24:50.011Z,80.80
2018-06-21T03:27:26.306Z,80.60
2018-06-21T03:30:02.709Z,80.80
2018-06-21T03:32:39.231Z,80.40
2018-06-21T03:35:15.784Z,80.20
2018-06-21T03:37:52.241Z,79.60
2018-06-21T03:40:28.762Z,80.30
2018-06-21T03:43:05.794Z,79.00
2018-06-21T03:45:42.230Z,80.10
2018-06-21T03:48:18.872Z,80.80
2018-06-21T03:50:55.419Z,81.90
2018-06-21T03:53:31.976Z,81.30
2018-06-21T03:56:08.636Z,80.20
2018-06-21T03:58:45.110Z,79.60
2018-06-21T04:01:21.572Z,79.60
2018-06-21T04:03:57.865Z,80.10
2018-06-21T04:06:34.378Z,80.60
2018-06-21T04:09:11.654Z,81.40
2018-06-21T04:11:47.987Z,81.10
2018-06-21T04:14:24.400Z,79.60
2018-06-21T04:17:00.886Z,79.70
2018-06-21T04:19:37.279Z,81.00
2018-06-21T04:22:13.735Z,80.20
2018-06-21T04:24:50.253Z,80.70
2018-06-21T04:27:26.613Z,79.80
2018-06-21T04:30:03.138Z,80.70
2018-06-21T04:32:39.491Z,80.50
2018-06-21T04:35:15.972Z,80.20
2018-06-21T04:37:52.319Z,80.40
2018-06-21T04:40:28.903Z,78.20
2018-06-21T04:43:05.319Z,79.20
2018-06-21T04:45:42.194Z,79.40
2018-06-21T04:48:18.775Z,79.70
2018-06-21T04:50:56.099Z,80.70
2018-06-21T04:53:32.467Z,80.10
2018-06-21T04:56:09.874Z,80.60
2018-06-21T04:58:47.719Z,80.40
2018-06-21T05:01:24.157Z,80.20
2018-06-21T05:04:00.467Z,79.30
2018-06-21T05:06:36.974Z,79.30
2018-06-21T05:09:13.730Z,80.30
2018-06-21T05:11:50.130Z,79.70
2018-06-21T05:14:26.670Z,79.20
2018-06-21T05:17:03.602Z,79.70
2018-06-21T05:19:39.928Z,77.50
2018-06-21T05:22:16.529Z,76.40
2018-06-21T05:24:52.897Z,74.60
2018-06-21T05:27:29.437Z,72.30
2018-06-21T05:30:06.262Z,69.00
2018-06-21T05:32:43.268Z,65.00
2018-06-21T05:35:19.751Z,58.70
2018-06-21T05:37:57.241Z,57.90
2018-06-21T05:40:35.832Z,57.70
2018-06-21T05:43:12.311Z,56.30
2018-06-21T05:45:48.766Z,55.60
2018-06-21T05:48:25.078Z,53.90
2018-06-21T05:51:01.529Z,52.40
2018-06-21T05:53:38.080Z,51.30
2018-06-21T05:56:14.632Z,51.10
2018-06-21T05:58:52.543Z,49.00
2018-06-21T06:01:28.951Z,48.90
2018-06-21T06:04:06.205Z,49.40
2018-06-21T06:06:42.696Z,47.80
2018-06-21T06:09:19.233Z,47.50
2018-06-21T06:11:55.888Z,47.60
2018-06-21T06:14:32.314Z,47.10
2018-06-21T06:17:08.771Z,48.00
2018-06-21T06:19:45.139Z,47.70
2018-06-21T06:22:21.746Z,47.20
2018-06-21T06:24:58.235Z,47.60
2018-06-21T06:27:34.705Z,47.10
2018-06-21T06:30:12.223Z,47.30
2018-06-21T06:32:48.642Z,47.70
2018-06-21T06:35:28.573Z,46.40
2018-06-21T06:38:05.160Z,46.50
2018-06-21T06:40:41.544Z,45.70
2018-06-21T06:43:17.863Z,45.70
2018-06-21T06:45:54.421Z,46.10
2018-06-21T06:48:30.899Z,45.10
2018-06-21T06:51:07.519Z,45.70
2018-06-21T06:53:44.035Z,44.00
2018-06-21T06:58:56.500Z,44.10
2018-06-21T07:01:32.842Z,41.80
2018-06-21T07:04:11.770Z,37.80
2018-06-21T07:06:48.253Z,39.10
2018-06-21T07:09:25.181Z,40.80
2018-06-21T07:12:01.649Z,41.00
2018-06-21T07:14:38.028Z,39.10
2018-06-21T07:17:14.606Z,37.30
2018-06-21T07:19:50.952Z,38.50
2018-06-21T07:22:27.393Z,38.00
2018-06-21T07:25:03.807Z,37.60
2018-06-21T07:27:40.160Z,36.10
2018-06-21T07:30:16.692Z,36.30
2018-06-21T07:32:53.195Z,36.70
2018-06-21T07:35:29.574Z,36.90
2018-06-21T07:38:06.202Z,35.30
2018-06-21T07:40:42.630Z,36.20
2018-06-21T07:43:19.029Z,35.40
2018-06-21T07:45:55.570Z,33.10
2018-06-21T07:48:32.024Z,34.30
2018-06-21T07:51:08.572Z,33.60
2018-06-21T07:53:45.128Z,34.70
2018-06-21T07:56:21.367Z,35.40
2018-06-21T07:58:57.876Z,36.40
2018-06-21T08:01:34.319Z,35.30
2018-06-21T08:04:12.104Z,34.40
2018-06-21T08:06:48.547Z,35.00
2018-06-21T08:09:25.158Z,34.70
2018-06-21T08:12:01.655Z,36.10
2018-06-21T08:14:38.192Z,34.20
2018-06-21T08:17:14.665Z,34.20
2018-06-21T08:19:51.151Z,34.70
2018-06-21T08:22:27.765Z,34.80
2018-06-21T08:25:04.355Z,34.40
2018-06-21T08:27:40.835Z,35.00
2018-06-21T08:30:17.300Z,34.70
2018-06-21T08:32:53.816Z,35.00
2018-06-21T08:35:30.383Z,33.50
2018-06-21T08:38:06.960Z,34.60
2018-06-21T08:40:43.471Z,34.50
2018-06-21T08:43:19.797Z,35.00
2018-06-21T08:45:56.908Z,34.80
2018-06-21T08:48:33.311Z,35.60
2018-06-21T08:51:09.758Z,35.80
2018-06-21T08:53:46.237Z,35.20
2018-06-21T08:56:22.809Z,35.90
2018-06-21T08:58:59.259Z,36.00
2018-06-21T09:01:35.625Z,37.70
2018-06-21T09:04:12.165Z,38.50
2018-06-21T09:06:48.642Z,38.90
2018-06-21T09:09:25.891Z,39.60
2018-06-21T09:12:02.212Z,41.30
2018-06-21T09:14:38.770Z,42.30
2018-06-21T09:17:15.429Z,42.00
2018-06-21T09:19:52.419Z,41.40
2018-06-21T09:22:29.308Z,40.60
2018-06-21T09:25:05.883Z,39.90
2018-06-21T09:27:42.260Z,39.30
2018-06-21T09:30:18.841Z,39.00
2018-06-21T09:32:55.347Z,38.60
2018-06-21T09:35:31.648Z,39.60
2018-06-21T09:38:16.230Z,39.40
2018-06-21T09:40:57.910Z,40.00
2018-06-21T09:43:50.296Z,39.70
2018-06-21T09:46:21.235Z,41.70
2018-06-21T09:48:57.666Z,43.40
2018-06-21T09:51:34.066Z,45.60
2018-06-21T09:56:46.889Z,49.00
2018-06-21T09:59:24.642Z,50.10
2018-06-21T10:02:01.358Z,51.30
2018-06-21T10:04:40.346Z,52.20
2018-06-21T10:07:16.753Z,52.10
2018-06-21T10:09:53.150Z,50.80
2018-06-21T10:12:29.587Z,50.70
2018-06-21T10:15:07.069Z,50.40
2018-06-21T10:17:44.136Z,51.10
2018-06-21T10:20:20.831Z,52.30
2018-06-21T10:22:57.528Z,50.90
2018-06-21T10:25:34.185Z,50.80
2018-06-21T10:28:11.221Z,48.80
2018-06-21T10:30:47.997Z,49.10
2018-06-21T10:33:24.674Z,48.10
2018-06-21T10:36:01.244Z,48.40
2018-06-21T10:38:39.132Z,47.60
2018-06-21T10:41:15.672Z,47.90
2018-06-21T10:43:52.062Z,48.10
2018-06-21T10:46:29.298Z,49.40
2018-06-21T10:49:06.151Z,49.00
2018-06-21T10:51:42.684Z,49.60
2018-06-21T10:54:19.372Z,50.40
2018-06-21T10:56:56.237Z,51.10
2018-06-21T10:59:33.428Z,51.20
2018-06-21T11:02:10.025Z,51.60
2018-06-21T11:04:51.845Z,52.00
2018-06-21T11:07:28.093Z,51.90
2018-06-21T11:10:04.704Z,52.00
2018-06-21T11:12:41.466Z,52.30
2018-06-21T11:15:17.989Z,52.70
2018-06-21T11:17:54.616Z,52.70
2018-06-21T11:20:30.990Z,52.60
2018-06-21T11:23:08.246Z,51.40
2018-06-21T11:25:44.746Z,50.00
2018-06-21T11:28:21.767Z,49.00
2018-06-21T11:30:58.503Z,49.20
2018-06-21T11:33:35.248Z,48.90
2018-06-21T11:36:11.751Z,45.70
2018-06-21T11:38:48.220Z,45.30
2018-06-21T11:41:24.518Z,42.60
2018-06-21T11:44:00.941Z,41.50
2018-06-21T11:51:49.554Z,40.70
2018-06-21T11:54:25.923Z,40.50
2018-06-21T11:57:02.481Z,41.60
2018-06-21T11:59:39.151Z,41.60
2018-06-21T12:02:16.610Z,40.00
2018-06-21T12:04:54.330Z,39.70
2018-06-21T12:07:31.024Z,38.20
2018-06-21T12:10:08.324Z,39.20
2018-06-21T12:12:44.853Z,37.60
2018-06-21T12:15:21.328Z,38.70
2018-06-21T12:17:57.733Z,37.50
2018-06-21T12:20:34.242Z,37.00
2018-06-21T12:23:10.603Z,37.10
2018-06-21T12:25:47.138Z,35.50
2018-06-21T12:28:23.591Z,35.80
2018-06-21T12:30:59.990Z,36.50
2018-06-21T12:33:36.428Z,35.60
2018-06-21T12:36:12.943Z,33.80
2018-06-21T12:38:49.397Z,34.40
2018-06-21T12:41:25.927Z,33.00
2018-06-21T12:44:02.944Z,32.50
2018-06-21T12:46:39.482Z,32.90
2018-06-21T12:49:15.976Z,32.90
2018-06-21T12:51:52.543Z,32.80
2018-06-21T12:54:28.961Z,31.80
2018-06-21T12:57:05.516Z,30.80
2018-06-21T12:59:41.998Z,31.50
2018-06-21T13:02:18.581Z,32.80
2018-06-21T13:04:54.935Z,33.50
2018-06-21T13:07:31.364Z,33.70
2018-06-21T13:10:25.085Z,32.50
2018-06-21T13:13:28.090Z,33.70
2018-06-21T13:16:04.368Z,33.50
2018-06-21T13:18:40.677Z,33.20
2018-06-21T13:21:17.219Z,32.10
2018-06-21T13:23:53.751Z,31.80
2018-06-21T13:26:30.214Z,33.20
2018-06-21T13:29:06.725Z,32.10
2018-06-21T13:31:43.348Z,31.10
2018-06-21T13:34:19.875Z,29.30
2018-06-21T13:42:09.517Z,29.70
2018-06-21T13:44:46.239Z,28.70
2018-06-21T13:47:23.019Z,29.00
2018-06-21T13:50:00.410Z,27.90
2018-06-21T13:52:37.125Z,26.20
2018-06-21T13:55:13.941Z,22.20
2018-06-21T13:57:50.435Z,24.00
2018-06-21T14:00:26.890Z,24.90
2018-06-21T14:03:03.196Z,25.60
2018-06-21T14:05:39.583Z,25.60
2018-06-21T14:08:16.179Z,27.00
2018-06-21T14:10:52.385Z,27.50
2018-06-21T14:13:28.961Z,27.40
2018-06-21T14:16:05.550Z,27.20
2018-06-21T14:18:41.910Z,25.00
2018-06-21T14:21:18.443Z,26.60
2018-06-21T14:23:55.744Z,24.80
2018-06-21T14:26:32.260Z,25.50
2018-06-21T14:29:08.808Z,27.70
2018-06-21T14:31:45.306Z,26.70
2018-06-21T14:34:21.776Z,27.90
2018-06-21T14:36:58.241Z,25.60
2018-06-21T14:39:34.697Z,26.10
2018-06-21T14:42:11.295Z,26.30
2018-06-21T14:44:47.720Z,27.30
2018-06-21T14:47:24.214Z,27.70
2018-06-21T14:50:00.814Z,27.50
2018-06-21T14:52:38.416Z,27.40
2018-06-21T14:55:15.630Z,27.10
2018-06-21T14:57:52.144Z,24.80
2018-06-21T15:00:30.699Z,25.20
2018-06-21T15:03:07.025Z,23.20
2018-06-21T15:05:43.548Z,25.30
2018-06-21T15:08:20.172Z,26.00
2018-06-21T15:10:57.093Z,26.20
2018-06-21T15:13:33.881Z,26.80
2018-06-21T15:16:10.529Z,26.60
2018-06-21T15:18:47.466Z,26.80
2018-06-21T15:21:23.744Z,26.00
2018-06-21T15:24:00.139Z,25.60
2018-06-21T15:26:36.783Z,25.00
2018-06-21T15:29:13.108Z,26.20
2018-06-21T15:31:49.655Z,25.70
2018-06-21T15:34:26.226Z,26.50
2018-06-21T15:37:02.718Z,25.90
2018-06-21T15:39:39.225Z,26.10
2018-06-21T15:42:15.727Z,25.30
2018-06-21T15:44:52.623Z,25.40
2018-06-21T15:47:29.102Z,25.60
2018-06-21T15:50:05.782Z,25.70
2018-06-21T15:52:43.170Z,25.20
2018-06-21T15:55:19.621Z,26.10
2018-06-21T15:57:56.183Z,26.30
2018-06-21T16:00:35.018Z,25.80
2018-06-21T16:03:12.352Z,25.60
2018-06-21T16:05:50.531Z,25.20
2018-06-21T16:08:27.032Z,25.80
2018-06-21T16:11:03.485Z,25.60
2018-06-21T16:13:39.924Z,25.80
2018-06-21T16:16:16.255Z,26.10
2018-06-21T16:18:52.774Z,26.40
2018-06-21T16:21:29.248Z,25.90
2018-06-21T16:24:05.783Z,25.70
2018-06-21T16:26:42.199Z,26.40
2018-06-21T16:29:18.667Z,26.20
2018-06-21T16:31:55.102Z,25.10
2018-06-21T16:34:31.513Z,25.30
2018-06-21T16:37:07.946Z,25.60
2018-06-21T16:39:44.423Z,26.10
2018-06-21T16:42:21.035Z,26.40
2018-06-21T16:44:57.432Z,25.40
2018-06-21T16:47:33.878Z,26.10
2018-06-21T16:50:10.383Z,25.10
2018-06-21T16:52:46.839Z,25.50
2018-06-21T16:55:23.278Z,24.60
2018-06-21T16:57:59.826Z,25.20
2018-06-21T17:00:36.452Z,25.80
2018-06-21T17:03:13.126Z,25.70
2018-06-21T17:05:50.307Z,26.50
2018-06-21T17:08:26.814Z,26.70
2018-06-21T17:11:03.364Z,25.50
2018-06-21T17:13:39.917Z,26.60
2018-06-21T17:16:16.220Z,26.20
2018-06-21T17:18:52.706Z,26.50
2018-06-21T17:21:29.004Z,26.60
2018-06-21T17:24:06.053Z,27.20
2018-06-21T17:26:42.635Z,26.80
2018-06-21T17:29:19.010Z,27.10
2018-06-21T17:31:55.514Z,27.60
2018-06-21T17:34:32.795Z,27.50
2018-06-21T17:37:10.194Z,28.20
2018-06-21T17:39:46.865Z,28.00
2018-06-21T17:42:23.216Z,27.00
2018-06-21T17:44:59.914Z,27.00
2018-06-21T17:47:36.403Z,27.90
2018-06-21T17:50:12.881Z,28.70
2018-06-21T17:52:49.411Z,28.30
2018-06-21T17:55:26.059Z,28.30
2018-06-21T17:58:02.634Z,29.00
2018-06-21T18:00:39.179Z,28.70
2018-06-21T18:03:15.626Z,28.70
2018-06-21T18:05:52.278Z,28.70
2018-06-21T18:08:28.800Z,29.00
2018-06-21T18:11:06.322Z,29.00
2018-06-21T18:13:43.336Z,29.30
2018-06-21T18:16:19.871Z,29.20
2018-06-21T18:18:56.389Z,29.40
2018-06-21T18:21:32.926Z,29.90
2018-06-21T18:24:09.517Z,29.60
2018-06-21T18:26:45.961Z,29.20
2018-06-21T18:29:22.715Z,30.30
2018-06-21T18:31:59.218Z,30.50
2018-06-21T18:34:36.115Z,30.20
2018-06-21T18:37:12.588Z,31.10
2018-06-21T18:39:49.073Z,30.80
2018-06-21T18:42:25.534Z,30.90
2018-06-21T18:45:02.076Z,30.90
2018-06-21T18:47:38.975Z,30.70
2018-06-21T18:50:15.547Z,31.10
2018-06-21T18:52:52.279Z,31.30
2018-06-21T18:55:28.901Z,30.70
2018-06-21T18:58:05.480Z,31.50
2018-06-21T19:00:41.922Z,32.00
2018-06-21T19:03:18.413Z,31.80
2018-06-21T19:05:54.954Z,32.00
2018-06-21T19:08:36.779Z,32.60
2018-06-21T19:11:19.190Z,32.80
2018-06-21T19:13:55.476Z,33.40
2018-06-21T19:16:31.883Z,34.30
2018-06-21T19:19:08.312Z,33.80
2018-06-21T19:21:44.871Z,34.40
2018-06-21T19:26:58.483Z,34.10
2018-06-21T19:29:35.028Z,34.30
2018-06-21T19:32:11.560Z,34.90
2018-06-21T19:34:48.144Z,35.30
2018-06-21T19:37:24.802Z,34.10
2018-06-21T19:40:01.331Z,34.80
2018-06-21T19:42:37.804Z,35.60
2018-06-21T19:45:14.209Z,34.50
2018-06-21T19:47:50.806Z,34.60
2018-06-21T19:53:03.266Z,35.80
2018-06-21T19:55:40.077Z,35.70
2018-06-21T19:58:16.713Z,35.90
2018-06-21T20:00:53.288Z,35.50
2018-06-21T20:03:35.071Z,36.50
2018-06-21T20:06:11.639Z,37.20
2018-06-21T20:08:48.214Z,36.90
2018-06-21T20:11:29.982Z,35.80
2018-06-21T20:14:06.724Z,36.10
2018-06-21T20:16:43.302Z,36.00
2018-06-21T20:19:20.414Z,37.50
2018-06-21T20:21:56.959Z,36.70
2018-06-21T20:24:33.548Z,37.10
2018-06-21T20:27:10.062Z,36.80
2018-06-21T20:29:46.475Z,37.30
2018-06-21T20:32:23.322Z,37.20
2018-06-21T20:34:59.926Z,38.00
2018-06-21T20:37:36.559Z,37.80
2018-06-21T20:40:13.164Z,38.50
2018-06-21T20:42:49.769Z,38.50
2018-06-21T20:45:26.166Z,38.30
2018-06-21T20:48:02.675Z,38.50
2018-06-21T20:50:39.506Z,38.70
2018-06-21T20:53:15.824Z,38.50
2018-06-21T20:55:52.169Z,38.60
2018-06-21T20:58:28.571Z,39.00
2018-06-21T21:01:04.956Z,39.50
2018-06-21T21:03:41.531Z,40.20
2018-06-21T21:06:17.981Z,40.40
2018-06-21T21:08:55.365Z,41.10
2018-06-21T21:11:34.101Z,41.00
2018-06-21T21:14:10.470Z,40.70
2018-06-21T21:16:48.275Z,41.70
2018-06-21T21:19:25.537Z,41.50
2018-06-21T21:22:02.732Z,41.70
2018-06-21T21:24:39.303Z,42.00
2018-06-21T21:27:16.140Z,42.30
2018-06-21T21:29:52.496Z,43.50
2018-06-21T21:32:29.329Z,42.80
2018-06-21T21:35:06.517Z,42.90
2018-06-21T21:37:42.910Z,43.30
2018-06-21T21:40:19.416Z,42.80
2018-06-21T21:42:55.919Z,43.50
2018-06-21T21:45:32.478Z,44.10
2018-06-21T21:48:08.972Z,44.30
2018-06-21T21:50:45.528Z,43.70
2018-06-21T21:53:22.143Z,44.30
2018-06-21T21:55:58.646Z,44.00
2018-06-21T21:58:35.132Z,44.20
2018-06-21T22:01:11.555Z,44.70
2018-06-21T22:03:48.034Z,44.70
2018-06-21T22:06:24.592Z,44.50
2018-06-21T22:09:00.993Z,45.00
2018-06-21T22:11:38.249Z,46.10
2018-06-21T22:14:14.812Z,45.20
2018-06-21T22:16:51.823Z,45.80
2018-06-21T22:19:28.260Z,46.20
2018-06-21T22:22:05.839Z,47.10
2018-06-21T22:24:42.142Z,46.90
2018-06-21T22:27:18.630Z,47.60
2018-06-21T22:29:54.935Z,47.50
2018-06-21T22:32:31.453Z,47.90
2018-06-21T22:35:08.079Z,48.10
2018-06-21T22:37:44.540Z,48.90
2018-06-21T22:40:21.096Z,48.30
2018-06-21T22:42:57.556Z,48.40
2018-06-21T22:45:34.047Z,48.10
2018-06-21T22:48:10.430Z,48.20
2018-06-21T22:50:46.864Z,48.40
2018-06-21T22:53:23.599Z,48.90
2018-06-21T22:56:00.004Z,48.60
2018-06-21T22:58:36.582Z,48.50
2018-06-21T23:01:12.994Z,48.80
2018-06-21T23:03:49.377Z,49.00
2018-06-21T23:06:25.939Z,49.70
2018-06-21T23:09:02.361Z,49.20
2018-06-21T23:11:38.821Z,48.70
2018-06-21T23:14:15.256Z,48.70
2018-06-21T23:16:55.148Z,48.60
2018-06-21T23:19:33.676Z,49.20
2018-06-21T23:22:11.106Z,48.80
2018-06-21T23:24:47.488Z,49.10
2018-06-21T23:27:24.038Z,50.00
2018-06-21T23:30:00.431Z,48.70
2018-06-21T23:32:36.930Z,49.20
2018-06-21T23:35:13.410Z,49.40
2018-06-21T23:37:50.940Z,49.10
2018-06-21T23:40:27.469Z,49.80
2018-06-21T23:43:03.971Z,49.50
2018-06-21T23:45:40.375Z,49.70
2018-06-21T23:48:16.833Z,50.00
2018-06-21T23:50:53.315Z,50.60
2018-06-21T23:53:29.712Z,49.90
2018-06-21T23:56:06.078Z,50.70
2018-06-21T23:58:42.804Z,50.60
